Time;durP1;ratioP1;P1;durP2;ratioP2;P2;SDS_P1;SDS_P2;PMS_P1;PMS_P2;Temp;Humidity;BMP_temperature;BMP_pressure;BME280_temperature;BME280_humidity;BME280_pressure;Samples;Min_cycle;Max_cycle;Signal;HPM_P1;HPM_P2
2023/06/15 00:01:04;;;;;;;5.30;2.83;;;;;;;;;;5014020;28;20030;-72
2023/06/15 00:03:30;;;;;;;9.60;3.50;;;;;;;;;;5009052;28;20030;-72
2023/06/15 00:05:56;;;;;;;7.60;3.47;;;;;;;;;;5015161;28;20080;-72
2023/06/15 00:08:21;;;;;;;9.75;3.28;;;;;;;;;;5012551;28;20045;-72
2023/06/15 00:10:47;;;;;;;7.07;3.08;;;;;;;;;;5012636;28;20037;-72
2023/06/15 00:13:13;;;;;;;6.22;3.08;;;;;;;;;;5047650;28;20042;-72
2023/06/15 00:15:39;;;;;;;4.93;2.47;;;;;;;;;;5017513;28;20458;-72
2023/06/15 00:18:05;;;;;;;4.03;2.60;;;;;;;;;;5014831;28;20065;-72
2023/06/15 00:20:31;;;;;;;6.00;2.90;;;;;;;;;;5014713;28;20367;-72
2023/06/15 00:22:58;;;;;;;8.85;2.70;;;;;;;;;;5013781;28;20049;-72
2023/06/15 00:25:23;;;;;;;4.47;2.15;;;;;;;;;;5013417;28;20068;-72
2023/06/15 00:27:49;;;;;;;5.15;3.03;;;;;;;;;;5014598;28;20113;-72
2023/06/15 00:30:14;;;;;;;5.22;3.05;;;;;;;;;;5013589;28;20034;-72
2023/06/15 00:32:40;;;;;;;4.93;2.55;;;;;;;;;;5014450;28;20122;-72
2023/06/15 00:35:06;;;;;;;5.68;3.03;;;;;;;;;;5014312;28;20042;-72
2023/06/15 00:37:31;;;;;;;6.45;2.72;;;;;;;;;;5014547;28;20030;-72
2023/06/15 00:39:56;;;;;;;7.32;2.85;;;;;;;;;;5012414;28;20034;-72
2023/06/15 00:42:22;;;;;;;8.90;3.42;;;;;;;;;;5014032;28;20052;-72
2023/06/15 00:44:48;;;;;;;8.57;3.20;;;;;;;;;;5013994;28;20072;-73
2023/06/15 00:47:17;;;;;;;9.00;3.30;;;;;;;;;;5014278;28;20030;-72
2023/06/15 00:49:42;;;;;;;6.38;2.88;;;;;;;;;;5013919;28;20133;-72
2023/06/15 00:52:08;;;;;;;7.40;2.92;;;;;;;;;;5013800;28;20125;-72
2023/06/15 00:54:33;;;;;;;6.53;3.20;;;;;;;;;;5012444;28;20045;-72
2023/06/15 00:56:59;;;;;;;7.65;3.30;;;;;;;;;;5014070;28;20049;-72
2023/06/15 00:59:24;;;;;;;4.38;2.80;;;;;;;;;;5014314;28;20053;-72
2023/06/15 01:01:54;;;;;;;9.20;3.40;;;;;;;;;;5013942;28;20485;-72
2023/06/15 01:04:25;;;;;;;9.38;3.35;;;;;;;;;;5012875;28;20107;-72
2023/06/15 01:06:56;;;;;;;7.60;2.80;;;;;;;;;;5013725;28;20045;-72
2023/06/15 01:09:22;;;;;;;5.35;2.92;;;;;;;;;;5012625;28;20038;-72
2023/06/15 01:11:52;;;;;;;6.63;3.28;;;;;;;;;;5012227;28;20486;-72
2023/06/15 01:14:19;;;;;;;7.80;3.13;;;;;;;;;;5012919;28;20042;-72
2023/06/15 01:16:52;;;;;;;6.15;3.75;;;;;;;;;;5012295;28;20557;-72
2023/06/15 01:19:29;;;;;;;10.00;3.13;;;;;;;;;;5012488;28;20431;-72
2023/06/15 01:21:59;;;;;;;10.43;3.03;;;;;;;;;;5001264;28;20044;-72
2023/06/15 01:24:32;;;;;;;4.80;3.00;;;;;;;;;;5012451;28;20073;-72
2023/06/15 01:26:58;;;;;;;6.15;3.03;;;;;;;;;;5012498;28;20045;-72
2023/06/15 01:29:26;;;;;;;8.65;3.33;;;;;;;;;;5013687;28;20064;-72
2023/06/15 01:31:52;;;;;;;5.38;3.20;;;;;;;;;;5012429;28;20033;-72
2023/06/15 01:34:17;;;;;;;7.32;2.60;;;;;;;;;;5012256;28;20048;-72
2023/06/15 01:36:43;;;;;;;5.90;3.22;;;;;;;;;;5013156;28;20041;-72
2023/06/15 01:39:08;;;;;;;9.23;3.85;;;;;;;;;;5013717;28;20034;-72
2023/06/15 01:41:34;;;;;;;6.32;3.22;;;;;;;;;;5013358;28;20046;-72
2023/06/15 01:44:00;;;;;;;6.80;3.50;;;;;;;;;;5013344;28;20132;-72
2023/06/15 01:46:26;;;;;;;7.05;3.03;;;;;;;;;;5011834;28;20486;-72
2023/06/15 01:48:53;;;;;;;7.22;3.72;;;;;;;;;;5012124;28;20073;-72
2023/06/15 01:51:18;;;;;;;9.23;3.42;;;;;;;;;;5013545;28;20088;-72
2023/06/15 01:53:44;;;;;;;6.45;3.50;;;;;;;;;;5012113;28;20033;-72
2023/06/15 01:56:10;;;;;;;8.48;3.35;;;;;;;;;;5013556;28;20048;-72
2023/06/15 01:58:35;;;;;;;8.38;3.95;;;;;;;;;;5013018;28;20129;-72
2023/06/15 02:01:01;;;;;;;4.97;3.22;;;;;;;;;;5013200;28;20429;-72
2023/06/15 02:03:26;;;;;;;6.22;3.40;;;;;;;;;;5012909;28;20038;-72
2023/06/15 02:05:51;;;;;;;9.30;3.38;;;;;;;;;;5011929;28;20552;-72
2023/06/15 02:08:17;;;;;;;7.72;3.95;;;;;;;;;;5011074;28;20447;-72
2023/06/15 02:10:42;;;;;;;6.38;3.65;;;;;;;;;;5008229;28;20324;-72
2023/06/15 02:13:11;;;;;;;7.53;3.88;;;;;;;;;;5011753;28;20045;-72
2023/06/15 02:15:36;;;;;;;5.40;3.38;;;;;;;;;;5011141;28;20041;-72
2023/06/15 02:18:11;;;;;;;10.68;4.18;;;;;;;;;;5012676;28;20034;-72
2023/06/15 02:20:38;;;;;;;5.65;3.50;;;;;;;;;;5011457;28;20034;-72
2023/06/15 02:23:04;;;;;;;7.63;3.17;;;;;;;;;;5012286;28;20045;-72
2023/06/15 02:25:30;;;;;;;6.38;3.90;;;;;;;;;;5013044;28;20042;-72
2023/06/15 02:27:56;;;;;;;10.38;3.75;;;;;;;;;;5011849;28;20034;-72
2023/06/15 02:30:23;;;;;;;9.90;3.78;;;;;;;;;;5013764;28;20125;-72
2023/06/15 02:32:52;;;;;;;9.07;3.55;;;;;;;;;;5015688;28;20041;-72
2023/06/15 02:35:18;;;;;;;8.02;3.33;;;;;;;;;;5016886;28;20037;-72
2023/06/15 02:37:43;;;;;;;6.22;3.78;;;;;;;;;;5016617;28;20044;-72
2023/06/15 02:40:09;;;;;;;8.52;3.85;;;;;;;;;;5016341;28;20498;-72
2023/06/15 02:42:35;;;;;;;8.65;3.35;;;;;;;;;;5015446;28;20068;-72
2023/06/15 02:45:02;;;;;;;6.20;3.25;;;;;;;;;;5015379;28;20517;-72
2023/06/15 02:47:28;;;;;;;7.47;4.10;;;;;;;;;;5016346;28;20433;-72
2023/06/15 02:49:54;;;;;;;9.48;4.00;;;;;;;;;;5016649;28;20030;-72
2023/06/15 02:52:20;;;;;;;7.90;4.28;;;;;;;;;;5015214;28;20091;-72
2023/06/15 02:54:46;;;;;;;8.40;3.85;;;;;;;;;;5016328;28;20045;-72
2023/06/15 02:57:11;;;;;;;12.95;3.67;;;;;;;;;;5014968;28;20030;-72
2023/06/15 02:59:37;;;;;;;6.43;3.53;;;;;;;;;;5016177;28;20033;-72
2023/06/15 03:02:06;;;;;;;6.90;3.67;;;;;;;;;;5013624;28;20088;-72
2023/06/15 03:04:32;;;;;;;7.43;3.42;;;;;;;;;;5010785;28;20029;-72
2023/06/15 03:06:59;;;;;;;6.50;3.53;;;;;;;;;;5016265;28;20044;-72
2023/06/15 03:09:24;;;;;;;9.05;3.50;;;;;;;;;;5014887;28;20042;-72
2023/06/15 03:11:53;;;;;;;8.68;3.60;;;;;;;;;;5016134;28;20375;-72
2023/06/15 03:14:19;;;;;;;7.13;3.47;;;;;;;;;;5016051;28;20038;-72
2023/06/15 03:16:48;;;;;;;9.52;3.72;;;;;;;;;;5015974;28;20045;-72
2023/06/15 03:19:16;;;;;;;5.78;3.60;;;;;;;;;;5016041;28;20240;-72
2023/06/15 03:21:42;;;;;;;6.97;3.70;;;;;;;;;;5014702;28;20371;-72
2023/06/15 03:24:08;;;;;;;8.68;4.10;;;;;;;;;;5014605;28;20041;-72
2023/06/15 03:26:35;;;;;;;6.40;3.40;;;;;;;;;;5015808;28;20470;-72
2023/06/15 03:29:02;;;;;;;11.30;4.22;;;;;;;;;;5015940;28;20038;-72
2023/06/15 03:31:28;;;;;;;10.80;3.80;;;;;;;;;;5015651;28;20042;-72
2023/06/15 03:33:55;;;;;;;6.50;3.72;;;;;;;;;;5014664;28;20092;-72
2023/06/15 03:36:24;;;;;;;7.13;4.03;;;;;;;;;;5015599;28;20128;-72
2023/06/15 03:38:50;;;;;;;7.95;3.67;;;;;;;;;;5015037;28;20073;-72
2023/06/15 03:41:15;;;;;;;7.20;3.42;;;;;;;;;;5015545;28;20065;-72
2023/06/15 03:43:41;;;;;;;8.07;3.90;;;;;;;;;;4998117;28;20046;-72
2023/06/15 03:46:06;;;;;;;8.57;4.00;;;;;;;;;;5015492;28;20124;-72
2023/06/15 03:48:31;;;;;;;5.80;3.72;;;;;;;;;;5015089;28;20038;-72
2023/06/15 03:50:56;;;;;;;14.05;4.32;;;;;;;;;;5015380;28;20124;-72
2023/06/15 03:53:23;;;;;;;7.65;3.67;;;;;;;;;;5014934;28;20042;-72
2023/06/15 03:55:49;;;;;;;7.47;3.72;;;;;;;;;;5015401;28;20042;-72
2023/06/15 03:58:14;;;;;;;6.97;3.75;;;;;;;;;;5015020;28;20107;-72
2023/06/15 04:00:40;;;;;;;9.30;4.10;;;;;;;;;;5015287;28;20041;-72
2023/06/15 04:03:06;;;;;;;7.88;3.65;;;;;;;;;;5014669;28;20393;-72
2023/06/15 04:05:32;;;;;;;7.40;3.72;;;;;;;;;;5015053;28;20117;-72
2023/06/15 04:07:59;;;;;;;12.35;4.20;;;;;;;;;;5014983;28;20172;-72
2023/06/15 04:10:25;;;;;;;9.88;3.55;;;;;;;;;;5015011;28;20105;-72
2023/06/15 04:12:50;;;;;;;8.18;3.80;;;;;;;;;;5015047;28;20041;-72
2023/06/15 04:15:16;;;;;;;6.38;3.63;;;;;;;;;;5015005;28;20091;-72
2023/06/15 04:17:41;;;;;;;7.00;3.97;;;;;;;;;;5013587;28;20026;-72
2023/06/15 04:20:08;;;;;;;6.20;3.75;;;;;;;;;;5014843;28;20042;-72
2023/06/15 04:22:34;;;;;;;10.63;3.65;;;;;;;;;;5014788;28;20109;-72
2023/06/15 04:25:00;;;;;;;10.40;3.50;;;;;;;;;;5014833;28;20116;-72
2023/06/15 04:27:27;;;;;;;9.80;4.15;;;;;;;;;;5013028;28;20056;-72
2023/06/15 04:29:53;;;;;;;7.20;3.85;;;;;;;;;;5013581;28;20125;-72
2023/06/15 04:32:18;;;;;;;9.82;4.00;;;;;;;;;;5014570;28;20034;-72
2023/06/15 04:34:47;;;;;;;9.90;3.83;;;;;;;;;;5013406;28;20077;-72
2023/06/15 04:37:13;;;;;;;13.30;3.78;;;;;;;;;;5014406;28;20041;-72
2023/06/15 04:39:38;;;;;;;8.57;3.63;;;;;;;;;;5013205;28;20413;-72
2023/06/15 04:42:04;;;;;;;7.68;3.83;;;;;;;;;;5014298;28;20389;-72
2023/06/15 04:44:29;;;;;;;6.05;3.78;;;;;;;;;;5013616;28;20042;-72
2023/06/15 04:46:55;;;;;;;5.82;3.53;;;;;;;;;;5013732;28;20052;-72
2023/06/15 04:49:21;;;;;;;9.25;3.42;;;;;;;;;;5014289;28;20458;-72
2023/06/15 04:51:48;;;;;;;6.38;3.40;;;;;;;;;;5013119;28;20044;-72
2023/06/15 04:54:13;;;;;;;7.10;3.15;;;;;;;;;;5013388;28;20093;-72
2023/06/15 04:56:39;;;;;;;7.68;2.80;;;;;;;;;;5013011;28;20141;-72
2023/06/15 04:59:04;;;;;;;4.40;2.88;;;;;;;;;;5014316;28;20095;-72
2023/06/15 05:01:29;;;;;;;5.93;2.80;;;;;;;;;;5013741;28;20402;-72
2023/06/15 05:03:55;;;;;;;6.38;2.75;;;;;;;;;;5009502;28;20076;-72
2023/06/15 05:06:20;;;;;;;5.75;2.88;;;;;;;;;;5014262;28;20038;-72
2023/06/15 05:08:46;;;;;;;7.40;2.85;;;;;;;;;;5013972;28;20049;-72
2023/06/15 05:11:11;;;;;;;5.07;2.97;;;;;;;;;;5013887;28;20072;-72
2023/06/15 05:13:37;;;;;;;7.28;3.10;;;;;;;;;;5011053;28;20049;-72
2023/06/15 05:16:02;;;;;;;5.45;2.78;;;;;;;;;;5013933;28;20033;-72
2023/06/15 05:18:28;;;;;;;4.75;2.53;;;;;;;;;;5013741;28;20426;-72
2023/06/15 05:20:53;;;;;;;5.65;2.90;;;;;;;;;;5013818;28;20115;-72
2023/06/15 05:23:19;;;;;;;5.40;2.70;;;;;;;;;;5013773;28;20061;-72
2023/06/15 05:25:45;;;;;;;4.03;2.40;;;;;;;;;;5013635;28;20037;-72
2023/06/15 05:28:10;;;;;;;8.10;2.95;;;;;;;;;;5013555;28;20432;-72
2023/06/15 05:30:36;;;;;;;7.07;2.70;;;;;;;;;;5013709;28;20537;-73
2023/06/15 05:33:01;;;;;;;6.40;2.53;;;;;;;;;;5013555;28;20382;-72
2023/06/15 05:35:26;;;;;;;6.82;2.50;;;;;;;;;;5013573;28;20041;-72
2023/06/15 05:37:52;;;;;;;5.22;2.58;;;;;;;;;;5012275;28;20428;-72
2023/06/15 05:40:18;;;;;;;4.43;2.50;;;;;;;;;;5013405;28;20483;-72
2023/06/15 05:42:43;;;;;;;5.60;2.63;;;;;;;;;;5013446;28;20038;-72
2023/06/15 05:45:09;;;;;;;6.10;2.88;;;;;;;;;;5013613;28;20458;-72
2023/06/15 05:47:35;;;;;;;4.35;2.67;;;;;;;;;;5009126;28;20093;-72
2023/06/15 05:50:00;;;;;;;4.60;2.67;;;;;;;;;;5013403;28;20073;-72
2023/06/15 05:52:26;;;;;;;4.35;2.28;;;;;;;;;;5013450;28;20050;-72
2023/06/15 05:54:51;;;;;;;5.35;1.95;;;;;;;;;;5012980;28;20081;-72
2023/06/15 05:57:16;;;;;;;5.85;2.40;;;;;;;;;;5012602;28;20095;-72
2023/06/15 05:59:44;;;;;;;4.25;2.53;;;;;;;;;;5013190;28;20032;-72
2023/06/15 06:02:10;;;;;;;4.85;2.60;;;;;;;;;;5005505;28;20065;-72
2023/06/15 06:04:35;;;;;;;4.57;2.33;;;;;;;;;;5012052;28;20062;-72
2023/06/15 06:07:02;;;;;;;5.13;2.53;;;;;;;;;;5016993;28;20466;-72
2023/06/15 06:09:27;;;;;;;4.32;2.33;;;;;;;;;;5015724;28;20795;-72
2023/06/15 06:11:53;;;;;;;4.45;2.30;;;;;;;;;;5017294;28;20117;-72
2023/06/15 06:14:18;;;;;;;3.92;2.33;;;;;;;;;;5016049;28;20030;-72
2023/06/15 06:16:44;;;;;;;5.03;3.00;;;;;;;;;;5017230;28;20038;-72
2023/06/15 06:19:09;;;;;;;5.63;2.50;;;;;;;;;;5017056;28;20048;-72
2023/06/15 06:21:35;;;;;;;3.55;2.30;;;;;;;;;;5017113;28;20038;-72
2023/06/15 06:24:00;;;;;;;5.97;2.55;;;;;;;;;;5016670;28;20042;-72
2023/06/15 06:26:25;;;;;;;5.57;2.60;;;;;;;;;;5015909;28;20034;-72
2023/06/15 06:28:52;;;;;;;3.38;2.17;;;;;;;;;;5013606;28;20113;-72
2023/06/15 06:31:17;;;;;;;7.63;2.72;;;;;;;;;;5016580;28;20038;-72
2023/06/15 06:33:42;;;;;;;4.68;2.20;;;;;;;;;;5016768;28;20092;-73
2023/06/15 06:36:08;;;;;;;7.00;2.47;;;;;;;;;;5016880;28;20458;-72
2023/06/15 06:38:34;;;;;;;8.40;2.88;;;;;;;;;;5016677;28;20486;-71
2023/06/15 06:40:59;;;;;;;4.25;2.53;;;;;;;;;;5016969;28;20046;-71
2023/06/15 06:43:25;;;;;;;5.95;2.58;;;;;;;;;;5016570;28;20112;-70
2023/06/15 06:45:51;;;;;;;5.07;2.60;;;;;;;;;;5016516;28;20100;-70
2023/06/15 06:48:17;;;;;;;9.20;3.08;;;;;;;;;;5015463;28;20042;-71
2023/06/15 06:50:42;;;;;;;7.75;2.80;;;;;;;;;;5016628;28;20367;-71
2023/06/15 06:53:08;;;;;;;5.70;2.47;;;;;;;;;;5016473;28;20065;-71
2023/06/15 06:55:34;;;;;;;5.10;2.78;;;;;;;;;;5015835;28;20041;-71
2023/06/15 06:58:00;;;;;;;5.00;2.67;;;;;;;;;;5015942;28;20053;-71
2023/06/15 07:00:27;;;;;;;7.45;2.38;;;;;;;;;;5014924;28;20486;-72
2023/06/15 07:02:53;;;;;;;7.25;2.70;;;;;;;;;;5013716;28;20099;-73
2023/06/15 07:05:18;;;;;;;4.35;2.53;;;;;;;;;;5015303;28;20112;-73
2023/06/15 07:07:44;;;;;;;5.30;2.50;;;;;;;;;;5014906;28;20064;-73
2023/06/15 07:10:10;;;;;;;9.05;3.05;;;;;;;;;;5015085;28;20042;-72
2023/06/15 07:12:35;;;;;;;7.97;2.50;;;;;;;;;;5014896;28;20025;-73
2023/06/15 07:15:01;;;;;;;8.38;3.10;;;;;;;;;;5014877;28;20061;-73
2023/06/15 07:17:26;;;;;;;15.13;6.50;;;;;;;;;;5014389;28;20034;-73
2023/06/15 07:19:51;;;;;;;5.25;2.63;;;;;;;;;;5014870;28;20038;-73
2023/06/15 07:22:17;;;;;;;4.85;2.63;;;;;;;;;;5013516;28;20034;-72
2023/06/15 07:24:43;;;;;;;8.40;3.13;;;;;;;;;;5014799;28;20100;-73
2023/06/15 07:27:08;;;;;;;5.03;2.90;;;;;;;;;;5014658;28;20026;-72
2023/06/15 07:29:34;;;;;;;9.25;3.20;;;;;;;;;;5011863;28;20052;-73
2023/06/15 07:31:59;;;;;;;7.32;2.40;;;;;;;;;;5014625;28;20065;-73
2023/06/15 07:34:24;;;;;;;7.28;2.92;;;;;;;;;;5011396;28;20026;-73
2023/06/15 07:36:50;;;;;;;6.18;2.90;;;;;;;;;;5014269;28;20068;-73
2023/06/15 07:39:15;;;;;;;7.05;2.70;;;;;;;;;;5014289;28;20034;-71
2023/06/15 07:41:40;;;;;;;6.80;2.60;;;;;;;;;;5014487;28;20041;-71
2023/06/15 07:44:11;;;;;;;5.35;2.60;;;;;;;;;;5014583;28;20444;-71
2023/06/15 07:46:37;;;;;;;7.75;2.63;;;;;;;;;;5014398;28;20065;-71
2023/06/15 07:49:03;;;;;;;6.80;2.63;;;;;;;;;;5014444;28;20594;-71
2023/06/15 07:51:28;;;;;;;7.97;2.53;;;;;;;;;;5014372;28;20125;-71
2023/06/15 07:53:53;;;;;;;6.20;2.70;;;;;;;;;;5014126;28;20049;-71
2023/06/15 07:56:19;;;;;;;7.40;2.50;;;;;;;;;;5013995;28;20033;-71
2023/06/15 07:58:44;;;;;;;5.57;2.72;;;;;;;;;;4976080;28;1122230;-71
2023/06/15 08:01:09;;;;;;;4.50;2.60;;;;;;;;;;5014857;28;20107;-71
2023/06/15 08:03:35;;;;;;;6.70;2.33;;;;;;;;;;5014740;28;20029;-71
2023/06/15 08:06:01;;;;;;;5.30;2.40;;;;;;;;;;5015044;28;20036;-71
2023/06/15 08:08:26;;;;;;;10.15;2.70;;;;;;;;;;5015158;28;20117;-71
2023/06/15 08:10:51;;;;;;;5.63;2.50;;;;;;;;;;4997304;28;20034;-71
2023/06/15 08:13:18;;;;;;;6.05;2.50;;;;;;;;;;5013946;28;20049;-71
2023/06/15 08:15:44;;;;;;;4.57;1.98;;;;;;;;;;5015000;28;20062;-71
2023/06/15 08:18:09;;;;;;;5.47;2.30;;;;;;;;;;5000562;28;20046;-71
2023/06/15 08:20:35;;;;;;;9.00;2.10;;;;;;;;;;5014953;28;20057;-71
2023/06/15 08:23:00;;;;;;;3.60;2.30;;;;;;;;;;5014706;28;20073;-71
2023/06/15 08:25:25;;;;;;;5.18;2.22;;;;;;;;;;5014943;28;20046;-71
2023/06/15 08:27:51;;;;;;;3.88;2.00;;;;;;;;;;5012861;28;20394;-71
2023/06/15 08:30:17;;;;;;;7.82;2.10;;;;;;;;;;5014628;28;20386;-71
2023/06/15 08:32:42;;;;;;;8.50;2.40;;;;;;;;;;5014384;28;20105;-71
2023/06/15 08:35:08;;;;;;;7.97;1.92;;;;;;;;;;5014604;28;20811;-71
2023/06/15 08:37:34;;;;;;;4.30;2.22;;;;;;;;;;5001334;28;20100;-71
2023/06/15 08:40:05;;;;;;;4.50;2.10;;;;;;;;;;5013208;28;20030;-71
2023/06/15 08:42:31;;;;;;;4.82;2.00;;;;;;;;;;5014604;28;20065;-71
2023/06/15 08:44:57;;;;;;;7.93;2.10;;;;;;;;;;5013124;28;20084;-71
2023/06/15 08:47:23;;;;;;;5.07;2.15;;;;;;;;;;5013045;28;20029;-71
2023/06/15 08:49:48;;;;;;;3.60;1.95;;;;;;;;;;5012504;28;20052;-71
2023/06/15 08:52:16;;;;;;;5.82;2.17;;;;;;;;;;5014396;28;20061;-71
2023/06/15 08:54:42;;;;;;;3.58;2.20;;;;;;;;;;5012872;28;20129;-71
2023/06/15 08:57:08;;;;;;;6.45;2.10;;;;;;;;;;5012919;28;20041;-71
2023/06/15 08:59:33;;;;;;;4.72;2.03;;;;;;;;;;5013978;28;20040;-71
2023/06/15 09:02:02;;;;;;;6.32;2.22;;;;;;;;;;5012145;28;20033;-71
2023/06/15 09:04:30;;;;;;;7.43;2.20;;;;;;;;;;5014268;28;20037;-71
2023/06/15 09:06:59;;;;;;;9.45;1.85;;;;;;;;;;5012785;28;20046;-71
2023/06/15 09:09:25;;;;;;;4.15;2.00;;;;;;;;;;5012857;28;20026;-71
2023/06/15 09:11:50;;;;;;;4.32;1.80;;;;;;;;;;5013677;28;20038;-71
2023/06/15 09:14:15;;;;;;;3.60;2.00;;;;;;;;;;5012733;28;20053;-71
2023/06/15 09:16:41;;;;;;;5.65;2.42;;;;;;;;;;5013779;28;20033;-71
2023/06/15 09:19:11;;;;;;;2.88;2.08;;;;;;;;;;5013689;28;20448;-71
2023/06/15 09:21:51;;;;;;;3.65;1.98;;;;;;;;;;5013658;28;20049;-71
2023/06/15 09:24:17;;;;;;;4.75;2.08;;;;;;;;;;5013999;28;20037;-72
2023/06/15 09:26:44;;;;;;;3.10;1.90;;;;;;;;;;5012577;28;20046;-71
2023/06/15 09:29:11;;;;;;;2.80;1.80;;;;;;;;;;5013643;28;20039;-71
2023/06/15 09:31:37;;;;;;;4.80;2.03;;;;;;;;;;5012587;28;20041;-71
2023/06/15 09:34:09;;;;;;;4.15;1.98;;;;;;;;;;5013504;28;20050;-71
2023/06/15 09:36:44;;;;;;;8.93;2.30;;;;;;;;;;5013265;28;20084;-71
2023/06/15 09:39:13;;;;;;;4.45;2.20;;;;;;;;;;5012255;28;20038;-71
2023/06/15 09:42:00;;;;;;;7.97;2.38;;;;;;;;;;5012541;28;20386;-71
2023/06/15 09:44:26;;;;;;;6.55;2.83;;;;;;;;;;5013378;28;20068;-71
2023/06/15 09:46:53;;;;;;;5.47;1.90;;;;;;;;;;5012031;28;20494;-71
2023/06/15 09:49:23;;;;;;;5.25;2.33;;;;;;;;;;5013190;28;20564;-71
2023/06/15 09:51:52;;;;;;;4.57;2.10;;;;;;;;;;5013446;28;20044;-71
2023/06/15 09:54:20;;;;;;;6.82;2.20;;;;;;;;;;5012215;28;20092;-71
2023/06/15 09:56:47;;;;;;;4.05;1.98;;;;;;;;;;5013383;28;20122;-71
2023/06/15 09:59:13;;;;;;;4.03;2.10;;;;;;;;;;5011983;28;20100;-71
2023/06/15 10:01:41;;;;;;;7.60;1.98;;;;;;;;;;5013305;28;20437;-71
2023/06/15 10:04:07;;;;;;;4.03;1.98;;;;;;;;;;5012144;28;20034;-71
2023/06/15 10:06:35;;;;;;;11.13;3.05;;;;;;;;;;5012185;28;20042;-71
2023/06/15 10:09:02;;;;;;;4.00;2.08;;;;;;;;;;5012064;28;20161;-71
2023/06/15 10:11:29;;;;;;;4.30;2.25;;;;;;;;;;5012023;28;20037;-71
2023/06/15 10:14:00;;;;;;;5.57;2.00;;;;;;;;;;5012142;28;20359;-71
2023/06/15 10:16:26;;;;;;;13.07;2.20;;;;;;;;;;5008838;28;20129;-71
2023/06/15 10:18:57;;;;;;;8.85;2.33;;;;;;;;;;5011919;28;20497;-71
2023/06/15 10:21:26;;;;;;;5.43;2.45;;;;;;;;;;5012172;28;20038;-71
2023/06/15 10:23:54;;;;;;;2.92;2.20;;;;;;;;;;5013084;28;20057;-71
2023/06/15 10:26:20;;;;;;;6.25;2.33;;;;;;;;;;5012035;28;20042;-71
2023/06/15 10:28:52;;;;;;;8.45;2.90;;;;;;;;;;5013029;28;20044;-71
2023/06/15 10:31:30;;;;;;;6.20;2.38;;;;;;;;;;5003835;28;20048;-71
2023/06/15 10:34:26;;;;;;;5.53;1.90;;;;;;;;;;5003422;28;20037;-71
2023/06/15 10:37:05;;;;;;;3.78;2.17;;;;;;;;;;5004075;28;20085;-71
2023/06/15 10:39:39;;;;;;;5.72;2.20;;;;;;;;;;5010885;28;20053;-71
2023/06/15 10:42:11;;;;;;;4.03;2.20;;;;;;;;;;5011680;28;20038;-71
2023/06/15 10:44:36;;;;;;;6.85;2.30;;;;;;;;;;5013137;28;20048;-72
2023/06/15 10:47:13;;;;;;;4.85;2.47;;;;;;;;;;5009772;28;20034;-72
2023/06/15 10:49:55;;;;;;;8.27;2.28;;;;;;;;;;5000742;28;20045;-73
2023/06/15 10:52:21;;;;;;;3.40;1.95;;;;;;;;;;5009934;28;20034;-72
2023/06/15 10:54:46;;;;;;;4.68;2.20;;;;;;;;;;5016398;28;20120;-72
2023/06/15 10:57:17;;;;;;;5.32;2.40;;;;;;;;;;5016220;28;20101;-70
2023/06/15 10:59:56;;;;;;;6.40;2.20;;;;;;;;;;5015251;28;20062;-72
2023/06/15 11:02:28;;;;;;;7.60;2.70;;;;;;;;;;5007599;28;20069;-72
2023/06/15 11:05:16;;;;;;;6.25;2.50;;;;;;;;;;5016322;28;20030;-72
2023/06/15 11:07:48;;;;;;;5.55;2.28;;;;;;;;;;5015581;28;20501;-72
2023/06/15 11:10:22;;;;;;;4.45;2.10;;;;;;;;;;5015137;28;20030;-72
2023/06/15 11:12:51;;;;;;;5.40;2.80;;;;;;;;;;5014785;28;20041;-72
2023/06/15 11:15:16;;;;;;;4.00;2.33;;;;;;;;;;5015965;28;20532;-72
2023/06/15 11:17:57;;;;;;;4.45;2.60;;;;;;;;;;5015806;28;20034;-72
2023/06/15 11:20:44;;;;;;;5.05;2.15;;;;;;;;;;5015018;28;20454;-72
2023/06/15 11:23:19;;;;;;;3.65;2.25;;;;;;;;;;5009244;28;20494;-72
2023/06/15 11:25:51;;;;;;;7.50;2.45;;;;;;;;;;5014671;28;20037;-72
2023/06/15 11:28:22;;;;;;;5.75;2.72;;;;;;;;;;5014650;28;20050;-72
2023/06/15 11:30:49;;;;;;;7.78;2.35;;;;;;;;;;5015816;28;20386;-72
2023/06/15 11:33:14;;;;;;;7.13;2.47;;;;;;;;;;5015715;28;20165;-72
2023/06/15 11:35:40;;;;;;;6.85;2.55;;;;;;;;;;5015598;28;20448;-72
2023/06/15 11:38:09;;;;;;;4.72;2.60;;;;;;;;;;5014497;28;20038;-72
2023/06/15 11:40:35;;;;;;;6.97;2.80;;;;;;;;;;5015645;28;20132;-72
2023/06/15 11:43:02;;;;;;;5.40;2.90;;;;;;;;;;5015670;28;20630;-72
2023/06/15 11:45:28;;;;;;;6.38;2.33;;;;;;;;;;5014400;28;20117;-72
2023/06/15 11:47:54;;;;;;;6.32;2.67;;;;;;;;;;5015503;28;20044;-72
2023/06/15 11:50:20;;;;;;;6.28;2.90;;;;;;;;;;5015480;28;20120;-72
2023/06/15 11:52:46;;;;;;;8.15;3.00;;;;;;;;;;5006790;28;20046;-72
2023/06/15 11:55:13;;;;;;;5.32;2.53;;;;;;;;;;5014123;28;20486;-72
2023/06/15 11:57:39;;;;;;;4.57;2.80;;;;;;;;;;5013784;28;20161;-72
2023/06/15 12:00:07;;;;;;;6.40;3.00;;;;;;;;;;5014779;28;20120;-72
2023/06/15 12:02:37;;;;;;;6.20;2.83;;;;;;;;;;5012337;28;20088;-72
2023/06/15 12:05:03;;;;;;;4.78;2.55;;;;;;;;;;5014314;28;20430;-72
2023/06/15 12:07:32;;;;;;;5.22;2.70;;;;;;;;;;5013792;28;20084;-72
2023/06/15 12:09:59;;;;;;;8.82;3.00;;;;;;;;;;5004937;28;20038;-72
2023/06/15 12:12:32;;;;;;;4.65;3.08;;;;;;;;;;5011085;28;20025;-72
2023/06/15 12:15:04;;;;;;;7.97;3.03;;;;;;;;;;5008586;28;20553;-72
2023/06/15 12:17:31;;;;;;;4.40;2.65;;;;;;;;;;5004818;28;20042;-72
2023/06/15 12:20:08;;;;;;;5.82;2.50;;;;;;;;;;5014731;28;20117;-72
2023/06/15 12:22:42;;;;;;;6.63;3.05;;;;;;;;;;5013122;28;20541;-72
2023/06/15 12:25:07;;;;;;;6.07;2.90;;;;;;;;;;5010461;28;20026;-72
2023/06/15 12:27:33;;;;;;;6.65;3.10;;;;;;;;;;5011585;28;20408;-72
2023/06/15 12:30:16;;;;;;;5.07;2.55;;;;;;;;;;5009500;28;20022;-72
2023/06/15 12:32:46;;;;;;;6.30;2.90;;;;;;;;;;5012802;28;20504;-72
2023/06/15 12:35:38;;;;;;;5.55;2.90;;;;;;;;;;5014407;28;20025;-72
2023/06/15 12:38:07;;;;;;;5.00;3.00;;;;;;;;;;5010869;28;20494;-72
2023/06/15 12:40:38;;;;;;;5.80;3.08;;;;;;;;;;5014445;28;20026;-72
2023/06/15 12:43:04;;;;;;;5.32;2.83;;;;;;;;;;5014292;28;20113;-72
2023/06/15 12:45:29;;;;;;;5.00;2.88;;;;;;;;;;5010156;28;20173;-72
2023/06/15 12:47:56;;;;;;;5.82;2.70;;;;;;;;;;5011707;28;20136;-72
2023/06/15 12:50:22;;;;;;;5.35;2.72;;;;;;;;;;5012899;28;20034;-72
2023/06/15 12:52:47;;;;;;;6.22;3.40;;;;;;;;;;5014043;28;20109;-72
2023/06/15 12:55:12;;;;;;;3.95;2.60;;;;;;;;;;5012754;28;20029;-72
2023/06/15 12:57:38;;;;;;;6.15;3.67;;;;;;;;;;5013639;28;20124;-72
2023/06/15 13:00:04;;;;;;;8.82;3.05;;;;;;;;;;5013942;28;20069;-72
2023/06/15 13:02:30;;;;;;;8.35;3.03;;;;;;;;;;5006738;28;20034;-72
2023/06/15 13:04:58;;;;;;;4.70;2.58;;;;;;;;;;5014029;28;20084;-72
2023/06/15 13:07:24;;;;;;;4.50;2.55;;;;;;;;;;5013133;28;20033;-72
2023/06/15 13:09:50;;;;;;;7.35;2.90;;;;;;;;;;5012720;28;20034;-72
2023/06/15 13:12:15;;;;;;;16.05;3.28;;;;;;;;;;5014256;28;20117;-72
2023/06/15 13:14:41;;;;;;;7.40;2.95;;;;;;;;;;5011985;28;20053;-72
2023/06/15 13:17:06;;;;;;;5.03;2.97;;;;;;;;;;5013785;28;20079;-72
2023/06/15 13:19:32;;;;;;;5.90;3.22;;;;;;;;;;5013797;28;20084;-72
2023/06/15 13:21:57;;;;;;;6.43;2.90;;;;;;;;;;5013457;28;20136;-72
2023/06/15 13:24:22;;;;;;;5.35;3.10;;;;;;;;;;5013835;28;20045;-72
2023/06/15 13:26:48;;;;;;;6.40;3.40;;;;;;;;;;5013673;28;20461;-72
2023/06/15 13:29:13;;;;;;;7.03;2.78;;;;;;;;;;5013815;28;20032;-72
2023/06/15 13:31:38;;;;;;;5.57;2.60;;;;;;;;;;5013360;28;20117;-72
2023/06/15 13:34:04;;;;;;;7.22;3.28;;;;;;;;;;5013637;28;20045;-72
2023/06/15 13:36:29;;;;;;;6.40;3.25;;;;;;;;;;5013678;28;20397;-72
2023/06/15 13:38:54;;;;;;;8.77;3.20;;;;;;;;;;5013981;28;20038;-72
2023/06/15 13:41:20;;;;;;;5.18;2.97;;;;;;;;;;5013784;28;20385;-72
2023/06/15 13:43:47;;;;;;;7.18;2.92;;;;;;;;;;5013520;28;20069;-72
2023/06/15 13:46:12;;;;;;;8.15;3.35;;;;;;;;;;5012511;28;20030;-72
2023/06/15 13:48:38;;;;;;;5.38;3.33;;;;;;;;;;5013412;28;20053;-72
2023/06/15 13:51:03;;;;;;;9.98;3.13;;;;;;;;;;5013498;28;20036;-72
2023/06/15 13:53:29;;;;;;;7.45;2.65;;;;;;;;;;5013795;28;20032;-72
2023/06/15 13:55:54;;;;;;;6.22;3.20;;;;;;;;;;5013541;28;20042;-72
2023/06/15 13:58:19;;;;;;;5.25;2.90;;;;;;;;;;5013277;28;20075;-72
2023/06/15 14:00:45;;;;;;;4.57;2.92;;;;;;;;;;5012364;28;20037;-72
2023/06/15 14:03:10;;;;;;;5.75;2.90;;;;;;;;;;5013302;28;20037;-72
2023/06/15 14:05:36;;;;;;;4.10;2.83;;;;;;;;;;5013277;28;20026;-72
2023/06/15 14:08:01;;;;;;;6.07;3.35;;;;;;;;;;5013126;28;20048;-72
2023/06/15 14:10:27;;;;;;;6.70;3.40;;;;;;;;;;4995611;28;20442;-72
2023/06/15 14:12:52;;;;;;;10.68;3.05;;;;;;;;;;5013325;28;20037;-72
2023/06/15 14:15:18;;;;;;;4.22;3.03;;;;;;;;;;5011574;28;20041;-72
2023/06/15 14:17:43;;;;;;;6.15;3.42;;;;;;;;;;5013046;28;20536;-72
2023/06/15 14:20:09;;;;;;;5.90;2.85;;;;;;;;;;5013222;28;20026;-72
2023/06/15 14:22:34;;;;;;;6.93;2.88;;;;;;;;;;5012065;28;20092;-72
2023/06/15 14:25:00;;;;;;;7.88;3.50;;;;;;;;;;5013068;28;20391;-72
2023/06/15 14:27:25;;;;;;;4.63;2.72;;;;;;;;;;5015363;28;20092;-72
2023/06/15 14:29:51;;;;;;;7.28;2.88;;;;;;;;;;5016787;28;20034;-72
2023/06/15 14:32:16;;;;;;;7.95;3.17;;;;;;;;;;5016577;28;20037;-72
2023/06/15 14:34:42;;;;;;;9.40;3.00;;;;;;;;;;5016687;28;20038;-72
2023/06/15 14:37:07;;;;;;;6.68;3.30;;;;;;;;;;5015645;28;20113;-72
2023/06/15 14:39:33;;;;;;;6.72;2.60;;;;;;;;;;5016818;28;20561;-72
2023/06/15 14:41:58;;;;;;;6.32;3.08;;;;;;;;;;5016689;28;20474;-72